Time;durP1;ratioP1;P1;durP2;ratioP2;P2;SDS_P1;SDS_P2;PMS_P1;PMS_P2;Temp;Humidity;BMP_temperature;BMP_pressure;BME280_temperature;BME280_humidity;BME280_pressure;Samples;Min_cycle;Max_cycle;Signal;HPM_P1;HPM_P2
2021/07/30 00:02:02;;;;;;;;;;;;;;;15.53;68.37;96219.94;5067470;28;19991;-77
2021/07/30 00:04:28;;;;;;;;;;;;;;;15.52;68.34;96224.44;5090685;28;20485;-77
2021/07/30 00:06:54;;;;;;;;;;;;;;;15.49;68.31;96213.56;5088599;28;20062;-77
2021/07/30 00:09:19;;;;;;;;;;;;;;;15.48;68.05;96230.47;5066665;28;20408;-77
2021/07/30 00:11:45;;;;;;;;;;;;;;;15.46;68.21;96225.44;5085593;28;19973;-77
2021/07/30 00:14:11;;;;;;;;;;;;;;;15.42;68.26;96217.22;5065082;28;19969;-77
2021/07/30 00:16:39;;;;;;;;;;;;;;;15.40;68.30;96219.31;5085362;28;19969;-77
2021/07/30 00:19:05;;;;;;;;;;;;;;;15.37;68.55;96222.47;5072207;28;19992;-77
2021/07/30 00:21:30;;;;;;;;;;;;;;;15.34;68.57;96222.19;5085077;28;20404;-77
2021/07/30 00:23:56;;;;;;;;;;;;;;;15.31;68.76;96233.28;5061103;28;20019;-77
2021/07/30 00:26:22;;;;;;;;;;;;;;;15.28;68.76;96226.63;5073283;28;19972;-77
2021/07/30 00:28:48;;;;;;;;;;;;;;;15.23;68.93;96223.97;5085736;28;19964;-77
2021/07/30 00:31:14;;;;;;;;;;;;;;;15.20;68.96;96213.88;5084448;28;20004;-77
2021/07/30 00:33:40;;;;;;;;;;;;;;;15.18;69.02;96214.16;5083693;28;20336;-77
2021/07/30 00:36:06;;;;;;;;;;;;;;;15.18;68.66;96213.34;5052459;28;20008;-77
2021/07/30 00:38:32;;;;;;;;;;;;;;;15.16;68.92;96208.31;5088699;28;20448;-77
2021/07/30 00:41:00;;;;;;;;;;;;;;;15.16;68.71;96210.97;5066620;28;19962;-77
2021/07/30 00:43:26;;;;;;;;;;;;;;;15.13;68.75;96214.09;5083886;28;19976;-77
2021/07/30 00:45:53;;;;;;;;;;;;;;;15.11;69.08;96212.75;5086916;28;19965;-77
2021/07/30 00:48:20;;;;;;;;;;;;;;;15.09;69.22;96220.13;5084727;28;19975;-77
2021/07/30 00:50:47;;;;;;;;;;;;;;;15.04;68.89;96207.69;5069448;28;20459;-77
2021/07/30 00:53:13;;;;;;;;;;;;;;;14.99;69.73;96216.38;5083460;28;19964;-77
2021/07/30 00:55:40;;;;;;;;;;;;;;;14.96;69.19;96213.44;5066698;28;19965;-77
2021/07/30 00:58:06;;;;;;;;;;;;;;;14.91;69.90;96206.28;5088605;28;19985;-77
2021/07/30 01:00:32;;;;;;;;;;;;;;;14.88;70.02;96203.31;5067469;28;19972;-77
2021/07/30 01:03:00;;;;;;;;;;;;;;;14.88;69.76;96203.31;5064970;28;19965;-77
2021/07/30 01:05:29;;;;;;;;;;;;;;;14.87;69.86;96209.66;5059754;28;20455;-77
2021/07/30 01:07:56;;;;;;;;;;;;;;;14.88;70.03;96205.97;5084330;28;19965;-77
2021/07/30 01:10:22;;;;;;;;;;;;;;;14.87;69.76;96209.66;5081816;28;19977;-77
2021/07/30 01:12:48;;;;;;;;;;;;;;;14.87;69.79;96209.66;5032230;28;19968;-77
2021/07/30 01:15:14;;;;;;;;;;;;;;;14.85;69.87;96207.28;5071281;28;20051;-77
2021/07/30 01:17:40;;;;;;;;;;;;;;;14.82;70.20;96205.13;5065550;28;20078;-77
2021/07/30 01:20:07;;;;;;;;;;;;;;;14.78;70.61;96210.13;5082628;28;19969;-77
2021/07/30 01:22:51;;;;;;;;;;;;;;;14.74;70.35;96213.50;5084341;28;19980;-77
2021/07/30 01:25:17;;;;;;;;;;;;;;;14.70;70.72;96207.94;5045380;28;19968;-77
2021/07/30 01:27:43;;;;;;;;;;;;;;;14.68;70.49;96217.94;5071336;28;19972;-77
2021/07/30 01:30:09;;;;;;;;;;;;;;;14.66;70.42;96222.66;5084041;28;20008;-77
2021/07/30 01:32:35;;;;;;;;;;;;;;;14.63;70.75;96215.22;5060819;28;19969;-77
2021/07/30 01:35:03;;;;;;;;;;;;;;;14.58;70.46;96218.63;5066623;28;20003;-77
2021/07/30 01:37:31;;;;;;;;;;;;;;;14.55;70.28;96219.13;5086759;28;20432;-77
2021/07/30 01:39:56;;;;;;;;;;;;;;;14.54;70.75;96214.06;5066195;28;19968;-77
2021/07/30 01:42:23;;;;;;;;;;;;;;;14.51;70.97;96223.28;5081643;28;20006;-77
2021/07/30 01:44:51;;;;;;;;;;;;;;;14.48;70.87;96221.13;5079396;28;19965;-77
2021/07/30 01:47:17;;;;;;;;;;;;;;;14.46;71.22;96212.66;5032072;28;19969;-77
2021/07/30 01:49:43;;;;;;;;;;;;;;;14.43;71.26;96207.88;5089668;28;19996;-77
2021/07/30 01:52:09;;;;;;;;;;;;;;;14.40;71.20;96213.66;5054432;28;20059;-77
2021/07/30 01:54:34;;;;;;;;;;;;;;;14.36;71.39;96210.72;5081175;28;20401;-77
2021/07/30 01:57:00;;;;;;;;;;;;;;;14.34;71.69;96212.81;5056693;28;19968;-77
2021/07/30 01:59:26;;;;;;;;;;;;;;;14.31;70.95;96205.38;5083210;28;19980;-77
2021/07/30 02:01:52;;;;;;;;;;;;;;;14.28;70.57;96202.44;5083787;28;20026;-77
2021/07/30 02:04:18;;;;;;;;;;;;;;;14.25;70.60;96206.38;5082681;28;20067;-77
2021/07/30 02:06:44;;;;;;;;;;;;;;;14.23;71.25;96200.53;5069451;28;19965;-77
2021/07/30 02:09:10;;;;;;;;;;;;;;;14.19;71.44;96202.06;5082427;28;19965;-77
2021/07/30 02:11:39;;;;;;;;;;;;;;;14.16;71.35;96202.59;5083368;28;20479;-77
2021/07/30 02:14:26;;;;;;;;;;;;;;;14.13;71.22;96197.78;5080567;28;19965;-77
2021/07/30 02:16:55;;;;;;;;;;;;;;;14.11;71.68;96203.31;5074979;28;19968;-78
2021/07/30 02:19:22;;;;;;;;;;;;;;;14.08;72.09;96203.78;5078812;28;19981;-77
2021/07/30 02:21:49;;;;;;;;;;;;;;;14.04;71.58;96197.41;5052720;28;19976;-77
2021/07/30 02:24:15;;;;;;;;;;;;;;;14.03;71.25;96195.84;5065562;28;20472;-77
2021/07/30 02:26:41;;;;;;;;;;;;;;;14.00;71.21;96191.84;5059580;28;19964;-77
2021/07/30 02:29:07;;;;;;;;;;;;;;;13.99;71.18;96192.88;5063686;28;19984;-77
2021/07/30 02:31:33;;;;;;;;;;;;;;;13.96;71.63;96187.31;5077377;28;20383;-77
2021/07/30 02:33:59;;;;;;;;;;;;;;;13.93;71.64;96185.16;5086763;28;19984;-77
2021/07/30 02:36:25;;;;;;;;;;;;;;;13.92;71.75;96186.19;5072492;28;20409;-77
2021/07/30 02:38:51;;;;;;;;;;;;;;;13.89;72.15;96178.78;5080226;28;20367;-77
2021/07/30 02:41:17;;;;;;;;;;;;;;;13.85;71.84;96183.75;5082858;28;19969;-78
2021/07/30 02:43:44;;;;;;;;;;;;;;;13.81;71.28;96172.09;5085242;28;19976;-77
2021/07/30 02:46:10;;;;;;;;;;;;;;;13.80;71.84;96178.44;5072023;28;20320;-77
2021/07/30 02:48:36;;;;;;;;;;;;;;;13.77;71.81;96171.81;5065551;28;19968;-77
2021/07/30 02:51:02;;;;;;;;;;;;;;;13.75;72.04;96175.72;5083886;28;19976;-77
2021/07/30 02:53:29;;;;;;;;;;;;;;;13.73;71.89;96169.88;5080780;28;19968;-77
2021/07/30 02:55:55;;;;;;;;;;;;;;;13.71;71.78;96169.34;5068004;28;19968;-77
2021/07/30 02:58:21;;;;;;;;;;;;;;;13.69;71.65;96166.16;5066721;28;19984;-77
2021/07/30 03:00:47;;;;;;;;;;;;;;;13.67;71.67;96162.94;5061618;28;20042;-77
2021/07/30 03:03:13;;;;;;;;;;;;;;;13.65;72.42;96173.75;5077587;28;19971;-77
2021/07/30 03:05:39;;;;;;;;;;;;;;;13.62;72.55;96168.97;5072656;28;20429;-77
2021/07/30 03:08:05;;;;;;;;;;;;;;;13.60;72.42;96173.69;5083458;28;20339;-77
2021/07/30 03:10:30;;;;;;;;;;;;;;;13.59;72.27;96174.72;5084175;28;19965;-77
2021/07/30 03:12:56;;;;;;;;;;;;;;;13.55;72.04;96174.41;5058125;28;20052;-77
2021/07/30 03:15:22;;;;;;;;;;;;;;;13.53;72.62;96170.44;5066202;28;19961;-77
2021/07/30 03:17:48;;;;;;;;;;;;;;;13.51;72.67;96169.88;5086029;28;20055;-77
2021/07/30 03:20:14;;;;;;;;;;;;;;;13.49;72.44;96170.09;5079552;28;20018;-77
2021/07/30 03:22:40;;;;;;;;;;;;;;;13.48;72.53;96171.16;5065846;28;20445;-77
2021/07/30 03:25:06;;;;;;;;;;;;;;;13.45;72.45;96169.00;5088445;28;20354;-77
2021/07/30 03:27:32;;;;;;;;;;;;;;;13.44;72.65;96172.69;5044144;28;19983;-77
2021/07/30 03:29:58;;;;;;;;;;;;;;;13.42;72.75;96166.03;5066282;28;19965;-77
2021/07/30 03:32:24;;;;;;;;;;;;;;;13.39;73.15;96164.69;5083252;28;19960;-77
2021/07/30 03:34:50;;;;;;;;;;;;;;;13.38;72.93;96160.50;5086015;28;20335;-77
2021/07/30 03:37:17;;;;;;;;;;;;;;;13.36;72.52;96154.66;5080605;28;19961;-77
2021/07/30 03:39:43;;;;;;;;;;;;;;;13.34;72.83;96144.34;5083454;28;20064;-77
2021/07/30 03:42:09;;;;;;;;;;;;;;;13.33;72.72;96142.78;5065093;28;19969;-77
2021/07/30 03:44:35;;;;;;;;;;;;;;;13.31;73.11;96141.41;5063803;28;19971;-77
2021/07/30 03:47:01;;;;;;;;;;;;;;;13.29;73.43;96144.31;5087877;28;19973;-77
2021/07/30 03:49:27;;;;;;;;;;;;;;;13.26;73.35;96144.75;5060599;28;20034;-77
2021/07/30 03:51:53;;;;;;;;;;;;;;;13.25;73.28;96137.06;5079630;28;19975;-77
2021/07/30 03:54:19;;;;;;;;;;;;;;;13.23;73.30;96141.78;5085503;28;19975;-77
2021/07/30 03:56:45;;;;;;;;;;;;;;;13.20;73.18;96138.59;5085720;28;20409;-77
2021/07/30 03:59:12;;;;;;;;;;;;;;;13.19;72.60;96142.28;5065439;28;20444;-77
2021/07/30 04:01:40;;;;;;;;;;;;;;;13.15;73.72;96148.28;5065171;28;19964;-77
2021/07/30 04:04:06;;;;;;;;;;;;;;;13.12;74.17;96146.94;5061828;28;19987;-77
2021/07/30 04:06:32;;;;;;;;;;;;;;;13.12;73.11;96144.31;5067644;28;20000;-77
2021/07/30 04:08:58;;;;;;;;;;;;;;;13.09;73.82;96142.13;5084128;28;20059;-77
2021/07/30 04:11:24;;;;;;;;;;;;;;;13.09;73.90;96141.34;5086759;28;20312;-77
2021/07/30 04:13:51;;;;;;;;;;;;;;;13.08;73.83;96143.19;5063297;28;20412;-77
2021/07/30 04:16:16;;;;;;;;;;;;;;;13.10;73.64;96142.91;5066044;28;19980;-77
2021/07/30 04:18:42;;;;;;;;;;;;;;;13.09;74.13;96136.06;5084458;28;19985;-77
2021/07/30 04:21:08;;;;;;;;;;;;;;;13.09;74.09;96142.13;5086936;28;20018;-77
2021/07/30 04:23:34;;;;;;;;;;;;;;;13.11;73.93;96147.16;5070764;28;20005;-77
2021/07/30 04:26:00;;;;;;;;;;;;;;;13.09;74.43;96142.13;5070388;28;19968;-77
2021/07/30 04:28:26;;;;;;;;;;;;;;;13.10;74.09;96146.38;5085273;28;19968;-77
2021/07/30 04:30:53;;;;;;;;;;;;;;;13.10;74.79;96154.28;5084294;28;20018;-77
2021/07/30 04:33:19;;;;;;;;;;;;;;;13.11;74.35;96157.69;5084550;28;19960;-77
2021/07/30 04:35:45;;;;;;;;;;;;;;;13.11;74.51;96163.75;5087056;28;20055;-77
2021/07/30 04:38:11;;;;;;;;;;;;;;;13.14;74.45;96158.00;5048069;28;19969;-77
2021/07/30 04:40:37;;;;;;;;;;;;;;;13.19;74.77;96157.28;5086069;28;19968;-77
2021/07/30 04:43:03;;;;;;;;;;;;;;;13.29;74.31;96164.56;5086195;28;19965;-77
2021/07/30 04:45:29;;;;;;;;;;;;;;;13.42;74.14;96160.78;5067593;28;20421;-77
2021/07/30 04:47:55;;;;;;;;;;;;;;;13.53;73.95;96165.94;5068486;28;20011;-77
2021/07/30 04:50:21;;;;;;;;;;;;;;;13.66;73.10;96164.00;5084192;28;20446;-77
2021/07/30 04:52:47;;;;;;;;;;;;;;;13.86;73.06;96166.09;5080460;28;20008;-77
2021/07/30 04:55:13;;;;;;;;;;;;;;;14.11;72.62;96170.84;5086823;28;19969;-77
2021/07/30 04:57:39;;;;;;;;;;;;;;;14.37;72.41;96167.47;5069751;28;19976;-77
2021/07/30 05:00:05;;;;;;;;;;;;;;;14.64;71.66;96158.00;5068833;28;20016;-77
2021/07/30 05:02:31;;;;;;;;;;;;;;;14.91;71.17;96150.00;5085971;28;19968;-78
2021/07/30 05:04:56;;;;;;;;;;;;;;;15.19;70.36;96146.25;5065418;28;20007;-77
2021/07/30 05:07:23;;;;;;;;;;;;;;;15.47;69.60;96149.59;5079624;28;20000;-77
2021/07/30 05:09:49;;;;;;;;;;;;;;;15.74;68.88;96139.72;5091484;28;19995;-77
2021/07/30 05:12:14;;;;;;;;;;;;;;;15.99;68.18;96132.94;5068336;28;20443;-77
2021/07/30 05:14:40;;;;;;;;;;;;;;;16.23;67.26;96136.72;5079917;28;19961;-77
2021/07/30 05:17:06;;;;;;;;;;;;;;;16.48;66.65;96137.00;5088034;28;19976;-77
2021/07/30 05:19:32;;;;;;;;;;;;;;;16.72;66.35;96135.44;5065282;28;19981;-77
2021/07/30 05:21:58;;;;;;;;;;;;;;;16.96;65.75;96130.44;5062204;28;20344;-78
2021/07/30 05:24:24;;;;;;;;;;;;;;;17.19;64.77;96126.44;5071596;28;19964;-78
2021/07/30 05:26:50;;;;;;;;;;;;;;;17.37;64.09;96121.66;5073283;28;19964;-78
2021/07/30 05:29:16;;;;;;;;;;;;;;;17.56;63.80;96127.16;5085113;28;19968;-78
2021/07/30 05:31:42;;;;;;;;;;;;;;;17.79;63.77;96125.75;5069084;28;20370;-77
2021/07/30 05:34:08;;;;;;;;;;;;;;;18.06;62.98;96112.13;5084317;28;20051;-77
2021/07/30 05:36:34;;;;;;;;;;;;;;;18.23;62.37;96117.09;5086942;28;19964;-78
2021/07/30 05:39:00;;;;;;;;;;;;;;;18.40;62.07;96112.19;5079480;28;20071;-77
2021/07/30 05:41:26;;;;;;;;;;;;;;;18.63;61.52;96110.69;5083888;28;19968;-77
2021/07/30 05:43:52;;;;;;;;;;;;;;;18.90;60.99;96106.81;5069342;28;19968;-77
2021/07/30 05:46:21;;;;;;;;;;;;;;;19.16;60.25;96095.94;5084868;28;20429;-77
2021/07/30 05:48:47;;;;;;;;;;;;;;;19.40;59.38;96088.78;5050847;28;20483;-78
2021/07/30 05:51:13;;;;;;;;;;;;;;;19.62;58.76;96092.78;5059877;28;20348;-77
2021/07/30 05:53:40;;;;;;;;;;;;;;;19.84;58.36;96086.94;5022306;28;19969;-77
2021/07/30 05:56:06;;;;;;;;;;;;;;;20.05;58.20;96088.28;5049747;28;19961;-77
2021/07/30 05:58:32;;;;;;;;;;;;;;;20.23;57.46;96077.91;5069122;28;20007;-77
2021/07/30 06:00:58;;;;;;;;;;;;;;;20.40;57.92;96091.50;5065498;28;19965;-77
2021/07/30 06:03:24;;;;;;;;;;;;;;;20.44;57.16;96075.72;5038026;28;19965;-78
2021/07/30 06:05:50;;;;;;;;;;;;;;;20.34;56.74;96081.22;5065397;28;19978;-78
2021/07/30 06:08:16;;;;;;;;;;;;;;;20.27;56.39;96082.34;5033255;28;19976;-77
2021/07/30 06:10:42;;;;;;;;;;;;;;;20.24;56.66;96082.94;5059714;28;19973;-78
2021/07/30 06:13:08;;;;;;;;;;;;;;;20.26;56.75;96075.47;5025780;28;20413;-78
2021/07/30 06:15:34;;;;;;;;;;;;;;;20.23;55.93;96075.25;5064499;28;20420;-77
2021/07/30 06:18:03;;;;;;;;;;;;;;;20.16;57.38;96083.59;5051768;28;19983;-77
2021/07/30 06:20:30;;;;;;;;;;;;;;;20.07;57.66;96080.78;5062027;28;20008;-78
2021/07/30 06:22:57;;;;;;;;;;;;;;;20.10;58.28;96084.75;5010649;28;19980;-77
2021/07/30 06:25:23;;;;;;;;;;;;;;;20.20;58.81;96089.94;5044947;28;20333;-78
2021/07/30 06:27:49;;;;;;;;;;;;;;;20.33;57.86;96087.63;5063646;28;20011;-77
2021/07/30 06:30:15;;;;;;;;;;;;;;;20.45;58.54;96087.94;5045271;28;20376;-77
2021/07/30 06:32:41;;;;;;;;;;;;;;;20.66;57.87;96083.13;5055025;28;20419;-77
2021/07/30 06:35:08;;;;;;;;;;;;;;;20.80;56.24;96070.63;5041047;28;19965;-78
2021/07/30 06:37:34;;;;;;;;;;;;;;;20.79;55.93;96065.59;5052864;28;20340;-78
2021/07/30 06:40:01;;;;;;;;;;;;;;;20.70;56.84;96078.81;5066794;28;19985;-78
2021/07/30 06:42:27;;;;;;;;;;;;;;;20.72;57.33;96079.31;5061377;28;20340;-78
2021/07/30 06:44:52;;;;;;;;;;;;;;;20.57;57.89;96082.19;5058172;28;20433;-78
2021/07/30 06:47:23;;;;;;;;;;;;;;;20.40;57.86;96090.69;5014196;28;19965;-79
2021/07/30 06:49:50;;;;;;;;;;;;;;;20.34;58.54;96095.31;5082683;28;19995;-77
2021/07/30 06:52:17;;;;;;;;;;;;;;;20.63;58.46;96083.72;5082978;28;20034;-77
2021/07/30 06:54:43;;;;;;;;;;;;;;;20.90;56.35;96074.22;5082854;28;19975;-78
2021/07/30 06:57:09;;;;;;;;;;;;;;;20.83;56.77;96075.41;5084878;28;20337;-77
2021/07/30 06:59:35;;;;;;;;;;;;;;;20.73;57.43;96074.78;5068182;28;19977;-77
2021/07/30 07:02:02;;;;;;;;;;;;;;;20.68;56.66;96073.78;5086405;28;19964;-78
2021/07/30 07:04:29;;;;;;;;;;;;;;;20.77;56.15;96065.13;5080732;28;19966;-78
2021/07/30 07:06:55;;;;;;;;;;;;;;;20.81;56.71;96074.91;5079973;28;19967;-77
2021/07/30 07:09:21;;;;;;;;;;;;;;;21.06;56.18;96068.34;5084895;28;19961;-77
2021/07/30 07:11:47;;;;;;;;;;;;;;;21.23;54.56;96051.75;5083679;28;19976;-78
2021/07/30 07:14:13;;;;;;;;;;;;;;;21.22;55.49;96060.84;5070537;28;19968;-78
2021/07/30 07:16:43;;;;;;;;;;;;;;;21.33;54.16;96053.44;5060733;28;19969;-78
2021/07/30 07:19:09;;;;;;;;;;;;;;;21.20;55.22;96062.22;5058224;28;19981;-78
2021/07/30 07:21:36;;;;;;;;;;;;;;;21.34;55.14;96057.69;5062170;28;19964;-78
2021/07/30 07:24:02;;;;;;;;;;;;;;;21.61;55.36;96059.59;5082622;28;19965;-78
2021/07/30 07:26:29;;;;;;;;;;;;;;;21.83;54.75;96053.50;5065641;28;19976;-77
2021/07/30 07:28:55;;;;;;;;;;;;;;;21.98;53.30;96033.72;5061676;28;19972;-77
2021/07/30 07:31:21;;;;;;;;;;;;;;;21.83;53.19;96024.16;5086436;28;19968;-78
2021/07/30 07:33:48;;;;;;;;;;;;;;;21.60;53.09;96033.97;5064913;28;19965;-77
2021/07/30 07:36:14;;;;;;;;;;;;;;;21.68;54.85;96051.97;5081583;28;19965;-77
2021/07/30 07:38:42;;;;;;;;;;;;;;;21.77;55.42;96053.94;5083515;28;20483;-77
2021/07/30 07:41:08;;;;;;;;;;;;;;;21.86;54.15;96044.16;5083983;28;20443;-77
2021/07/30 07:43:38;;;;;;;;;;;;;;;21.95;54.53;96044.22;5080419;28;19972;-75
2021/07/30 07:46:03;;;;;;;;;;;;;;;22.07;54.84;96058.63;5090016;28;19968;-78
2021/07/30 07:48:29;;;;;;;;;;;;;;;22.21;54.07;96047.88;5066092;28;19964;-78
2021/07/30 07:50:55;;;;;;;;;;;;;;;22.32;53.79;96037.00;5083948;28;19973;-77
2021/07/30 07:53:21;;;;;;;;;;;;;;;22.33;53.22;96034.03;5065763;28;20352;-78
2021/07/30 07:55:51;;;;;;;;;;;;;;;22.35;54.28;96042.53;5067173;28;19970;-78
2021/07/30 07:58:17;;;;;;;;;;;;;;;22.30;54.10;96042.66;5089090;28;19961;-78
2021/07/30 08:00:43;;;;;;;;;;;;;;;22.47;54.37;96042.78;5074934;28;19971;-78
2021/07/30 08:03:09;;;;;;;;;;;;;;;22.70;53.87;96042.78;5050685;28;19979;-78
2021/07/30 08:05:36;;;;;;;;;;;;;;;22.84;54.80;96053.38;5085302;28;19968;-77
2021/07/30 08:08:02;;;;;;;;;;;;;;;23.10;53.19;96035.59;5086859;28;19968;-78
2021/07/30 08:10:28;;;;;;;;;;;;;;;23.18;52.95;96026.06;5055408;28;19973;-78
2021/07/30 08:12:54;;;;;;;;;;;;;;;23.32;52.79;96028.59;5085436;28;20350;-78
2021/07/30 08:15:20;;;;;;;;;;;;;;;23.55;52.48;96026.63;5074344;28;20055;-78
2021/07/30 08:17:46;;;;;;;;;;;;;;;23.58;51.82;96017.16;5066645;28;19968;-77
2021/07/30 08:20:12;;;;;;;;;;;;;;;23.58;52.22;96026.00;5062931;28;20428;-77
2021/07/30 08:22:40;;;;;;;;;;;;;;;23.64;51.94;96024.72;5069777;28;19980;-77
2021/07/30 08:25:07;;;;;;;;;;;;;;;23.83;53.08;96034.41;5087242;28;19961;-77
2021/07/30 08:27:34;;;;;;;;;;;;;;;23.93;52.42;96020.72;5086441;28;19968;-78
2021/07/30 08:30:00;;;;;;;;;;;;;;;24.13;51.59;96013.16;5088932;28;20328;-77
2021/07/30 08:32:26;;;;;;;;;;;;;;;24.20;51.45;96011.59;5087548;28;19972;-77
2021/07/30 08:34:52;;;;;;;;;;;;;;;24.19;52.12;96014.56;5047840;28;19976;-76
2021/07/30 08:37:18;;;;;;;;;;;;;;;24.17;48.80;95992.66;5083127;28;20336;-77
2021/07/30 08:39:44;;;;;;;;;;;;;;;24.19;49.13;95987.78;5074074;28;20004;-77
2021/07/30 08:42:10;;;;;;;;;;;;;;;24.16;49.97;95994.56;5089761;28;19964;-77
2021/07/30 08:44:38;;;;;;;;;;;;;;;24.20;48.92;95984.00;5084018;28;20328;-77
2021/07/30 08:47:04;;;;;;;;;;;;;;;24.18;49.05;95992.34;5084967;28;19968;-76
2021/07/30 08:49:33;;;;;;;;;;;;;;;24.27;50.22;96003.88;5087190;28;19992;-77
2021/07/30 08:52:06;;;;;;;;;;;;;;;24.48;51.29;96001.31;5091111;28;19980;-77
2021/07/30 08:54:32;;;;;;;;;;;;;;;24.55;50.05;95986.66;5084998;28;19968;-77
2021/07/30 08:56:58;;;;;;;;;;;;;;;24.65;49.11;95984.44;5060579;28;19973;-77
2021/07/30 08:59:24;;;;;;;;;;;;;;;24.75;50.04;95988.66;5083491;28;20437;-77
2021/07/30 09:01:54;;;;;;;;;;;;;;;24.88;50.98;96000.28;5088712;28;19961;-77
2021/07/30 09:04:26;;;;;;;;;;;;;;;25.04;49.94;95984.47;5084422;28;19961;-77
2021/07/30 09:06:54;;;;;;;;;;;;;;;25.23;49.34;95976.81;5065668;28;19961;-77
2021/07/30 09:09:20;;;;;;;;;;;;;;;25.07;47.00;95978.44;5088902;28;20416;-77
2021/07/30 09:11:47;;;;;;;;;;;;;;;24.98;47.59;95983.06;5082402;28;19976;-77
2021/07/30 09:14:13;;;;;;;;;;;;;;;25.05;48.38;95988.69;5062899;28;19968;-77
2021/07/30 09:16:52;;;;;;;;;;;;;;;25.17;48.03;95993.41;5087040;28;20475;-77
2021/07/30 09:19:18;;;;;;;;;;;;;;;25.25;47.09;95981.88;5091421;28;19991;-76
2021/07/30 09:21:45;;;;;;;;;;;;;;;25.15;46.65;95984.88;5087421;28;19973;-76
2021/07/30 09:24:11;;;;;;;;;;;;;;;25.20;47.56;96000.78;5082499;28;19976;-77
2021/07/30 09:26:54;;;;;;;;;;;;;;;25.23;47.66;95990.22;5065350;28;19968;-77
2021/07/30 09:29:24;;;;;;;;;;;;;;;25.36;48.60;95987.66;5063785;28;19969;-77
2021/07/30 09:32:04;;;;;;;;;;;;;;;25.58;48.22;95978.53;5084880;28;19969;-77
2021/07/30 09:34:37;;;;;;;;;;;;;;;25.79;47.04;95973.94;5067045;28;19997;-77
2021/07/30 09:37:05;;;;;;;;;;;;;;;25.87;45.61;95969.59;5081747;28;19960;-77
2021/07/30 09:39:33;;;;;;;;;;;;;;;25.94;46.37;95985.25;5085710;28;20451;-77
2021/07/30 09:42:01;;;;;;;;;;;;;;;25.98;44.02;95983.47;5077928;28;20431;-77
2021/07/30 09:44:27;;;;;;;;;;;;;;;26.01;44.67;95982.81;5080449;28;19965;-77
2021/07/30 09:47:06;;;;;;;;;;;;;;;26.09;45.02;95974.69;5083556;28;20036;-77
2021/07/30 09:49:38;;;;;;;;;;;;;;;26.02;45.82;95989.78;5067263;28;20360;-77
2021/07/30 09:52:06;;;;;;;;;;;;;;;25.91;45.60;95990.16;5060013;28;20344;-77
2021/07/30 09:54:32;;;;;;;;;;;;;;;25.99;45.98;95991.19;5085575;28;19969;-77
2021/07/30 09:57:01;;;;;;;;;;;;;;;26.07;44.16;95970.75;5089979;28;19980;-77
2021/07/30 09:59:28;;;;;;;;;;;;;;;26.18;45.96;95987.25;5080292;28;19976;-77
2021/07/30 10:01:54;;;;;;;;;;;;;;;26.23;44.71;95970.94;5081536;28;19973;-77
2021/07/30 10:04:23;;;;;;;;;;;;;;;26.32;44.85;95977.00;5086529;28;19961;-77
2021/07/30 10:06:49;;;;;;;;;;;;;;;26.46;45.16;95974.03;5065117;28;20325;-77
2021/07/30 10:09:17;;;;;;;;;;;;;;;26.59;43.12;95964.13;5051842;28;19975;-77
2021/07/30 10:11:44;;;;;;;;;;;;;;;26.71;43.29;95959.56;5078345;28;20425;-77
2021/07/30 10:14:11;;;;;;;;;;;;;;;26.66;44.71;95980.50;5088780;28;20436;-77
2021/07/30 10:16:47;;;;;;;;;;;;;;;26.80;42.94;95962.13;5086089;28;19964;-77
2021/07/30 10:19:13;;;;;;;;;;;;;;;26.84;42.28;95946.91;5065224;28;20348;-77
2021/07/30 10:21:39;;;;;;;;;;;;;;;26.78;42.68;95944.78;5083332;28;19973;-76
2021/07/30 10:24:07;;;;;;;;;;;;;;;26.83;44.31;95958.75;5070326;28;19968;-77
2021/07/30 10:26:32;;;;;;;;;;;;;;;26.95;44.10;95955.31;5080119;28;19965;-77
2021/07/30 10:28:59;;;;;;;;;;;;;;;27.10;43.98;95946.56;5063442;28;20324;-76
2021/07/30 10:31:45;;;;;;;;;;;;;;;27.32;44.51;95958.03;5067394;28;19965;-77
2021/07/30 10:34:11;;;;;;;;;;;;;;;27.46;43.34;95950.38;5075844;28;19964;-77
2021/07/30 10:36:38;;;;;;;;;;;;;;;27.28;42.39;95939.06;5080596;28;20044;-77
2021/07/30 10:39:05;;;;;;;;;;;;;;;27.37;43.33;95955.09;5084202;28;19969;-77
2021/07/30 10:41:31;;;;;;;;;;;;;;;27.26;42.78;95941.31;5067233;28;19977;-78
2021/07/30 10:44:03;;;;;;;;;;;;;;;27.10;41.46;95938.50;5065571;28;19968;-76
2021/07/30 10:46:29;;;;;;;;;;;;;;;26.98;44.22;95959.22;5084353;28;19968;-76
2021/07/30 10:48:55;;;;;;;;;;;;;;;26.90;43.67;95950.16;5060942;28;19989;-77
2021/07/30 10:51:21;;;;;;;;;;;;;;;26.94;43.87;95945.66;5053195;28;19969;-78
2021/07/30 10:53:47;;;;;;;;;;;;;;;26.95;44.15;95944.56;5038377;28;19965;-78
2021/07/30 10:56:16;;;;;;;;;;;;;;;26.97;44.24;95947.69;5051406;28;19965;-77
2021/07/30 10:58:45;;;;;;;;;;;;;;;26.95;44.08;95949.94;5038680;28;19973;-77
2021/07/30 11:01:11;;;;;;;;;;;;;;;26.85;44.46;95945.00;5049280;28;19977;-77
2021/07/30 11:03:51;;;;;;;;;;;;;;;26.72;43.21;95939.59;5032138;28;19972;-77
2021/07/30 11:06:17;;;;;;;;;;;;;;;26.60;44.90;95942.25;5039106;28;19968;-76
2021/07/30 11:11:39;;;;;;;;;;;;;;;26.47;44.65;95946.81;5043958;28;20417;-76
2021/07/30 11:14:13;;;;;;;;;;;;;;;26.47;45.09;95946.81;5046619;28;19965;-76
2021/07/30 11:16:39;;;;;;;;;;;;;;;26.46;44.74;95942.56;5036654;28;19973;-77
2021/07/30 11:19:05;;;;;;;;;;;;;;;26.47;45.52;95944.13;5046156;28;20414;-76
2021/07/30 11:21:31;;;;;;;;;;;;;;;26.52;45.88;95954.66;5050236;28;19984;-76
2021/07/30 11:23:57;;;;;;;;;;;;;;;26.52;44.54;95937.72;5036848;28;19974;-77
2021/07/30 11:26:23;;;;;;;;;;;;;;;26.44;45.74;95944.00;5042995;28;19965;-77
2021/07/30 11:28:54;;;;;;;;;;;;;;;26.27;44.53;95929.63;5048390;28;20019;-76
2021/07/30 11:31:20;;;;;;;;;;;;;;;26.13;45.97;95948.72;5047113;28;19961;-76
2021/07/30 11:33:46;;;;;;;;;;;;;;;26.06;45.82;95945.78;5050908;28;20425;-76
2021/07/30 11:36:13;;;;;;;;;;;;;;;26.13;46.91;95948.72;5045838;28;19961;-76
2021/07/30 11:38:55;;;;;;;;;;;;;;;26.25;45.82;95921.09;5054721;28;20433;-77
2021/07/30 11:41:22;;;;;;;;;;;;;;;26.52;46.43;95917.03;5049558;28;19984;-76
2021/07/30 11:44:01;;;;;;;;;;;;;;;26.81;46.43;95911.81;5046223;28;19969;-77
2021/07/30 11:46:28;;;;;;;;;;;;;;;27.00;46.04;95897.78;5050030;28;19965;-76
2021/07/30 11:48:54;;;;;;;;;;;;;;;27.00;45.58;95903.94;5052753;28;20000;-77
2021/07/30 11:51:20;;;;;;;;;;;;;;;26.95;46.05;95909.56;5090187;28;19968;-78
2021/07/30 11:53:47;;;;;;;;;;;;;;;26.87;44.30;95883.56;5069575;28;20375;-78
2021/07/30 11:56:13;;;;;;;;;;;;;;;26.75;43.71;95881.63;5060831;28;19970;-78
2021/07/30 11:58:58;;;;;;;;;;;;;;;26.62;45.16;95899.69;5087880;28;19992;-78
2021/07/30 12:01:25;;;;;;;;;;;;;;;26.46;45.77;95901.44;5087340;28;19980;-78
2021/07/30 12:04:06;;;;;;;;;;;;;;;26.35;46.66;95913.72;5066521;28;20448;-79
2021/07/30 12:06:35;;;;;;;;;;;;;;;26.27;46.27;95912.69;5087497;28;19964;-78
2021/07/30 12:09:01;;;;;;;;;;;;;;;26.12;46.45;95906.03;5030833;28;19964;-78
2021/07/30 12:11:27;;;;;;;;;;;;;;;25.99;46.62;95907.91;5068645;28;19965;-78
2021/07/30 12:13:54;;;;;;;;;;;;;;;25.87;47.14;95905.94;5072052;28;19968;-78
2021/07/30 12:16:20;;;;;;;;;;;;;;;25.81;46.99;95901.09;5085066;28;19972;-78
2021/07/30 12:18:46;;;;;;;;;;;;;;;25.79;48.05;95908.72;5084463;28;19969;-77
2021/07/30 12:21:12;;;;;;;;;;;;;;;25.78;48.19;95912.50;5085642;28;19977;-78
2021/07/30 12:23:38;;;;;;;;;;;;;;;25.85;48.80;95920.78;5068393;28;19975;-78
2021/07/30 12:26:04;;;;;;;;;;;;;;;25.88;48.50;95907.50;5086797;28;19964;-78
2021/07/30 12:28:41;;;;;;;;;;;;;;;25.92;48.08;95891.53;5085220;28;19975;-77
2021/07/30 12:31:13;;;;;;;;;;;;;;;25.96;47.98;95889.00;5084998;28;20297;-77
2021/07/30 12:33:39;;;;;;;;;;;;;;;26.03;47.85;95890.00;5056769;28;19972;-77
2021/07/30 12:36:09;;;;;;;;;;;;;;;26.11;47.24;95880.31;5064609;28;19972;-78
2021/07/30 12:39:06;;;;;;;;;;;;;;;26.10;45.88;95866.09;5083779;28;19965;-78
2021/07/30 12:41:33;;;;;;;;;;;;;;;26.02;46.50;95871.56;5074196;28;19980;-77
2021/07/30 12:44:08;;;;;;;;;;;;;;;26.19;48.42;95871.38;5074944;28;20325;-78
2021/07/30 12:46:38;;;;;;;;;;;;;;;26.38;46.91;95843.97;5086174;28;19978;-77
2021/07/30 12:49:08;;;;;;;;;;;;;;;26.71;49.31;95865.41;5081193;28;19989;-78
2021/07/30 12:51:35;;;;;;;;;;;;;;;27.16;46.55;95844.06;5085618;28;19976;-77